Time;durP1;ratioP1;P1;durP2;ratioP2;P2;SDS_P1;SDS_P2;PMS_P1;PMS_P2;Temp;Humidity;BMP_temperature;BMP_pressure;BME280_temperature;BME280_humidity;BME280_pressure;Samples;Min_cycle;Max_cycle;Signal;HPM_P1;HPM_P2
2020/12/12 00:01:18;;;;;;;10.48;8.40;;;5.60;99.90;;;;;;5057999;28;20237;-79
2020/12/12 00:03:44;;;;;;;9.52;7.47;;;5.60;99.90;;;;;;5057300;28;20187;-80
2020/12/12 00:06:10;;;;;;;10.75;8.18;;;5.60;99.90;;;;;;5056233;28;20240;-79
2020/12/12 00:08:37;;;;;;;10.95;8.48;;;5.60;99.90;;;;;;5059452;28;20202;-80
2020/12/12 00:11:04;;;;;;;10.77;8.63;;;5.60;99.90;;;;;;5059005;28;20746;-78
2020/12/12 00:13:31;;;;;;;12.35;8.02;;;5.60;99.90;;;;;;5059596;28;20564;-79
2020/12/12 00:15:57;;;;;;;12.55;8.60;;;5.60;99.90;;;;;;5059360;28;20564;-78
2020/12/12 00:18:23;;;;;;;10.32;8.27;;;5.60;99.90;;;;;;5060556;28;20207;-80
2020/12/12 00:20:49;;;;;;;9.90;7.70;;;5.70;99.90;;;;;;5050059;28;20191;-79
2020/12/12 00:23:16;;;;;;;7.60;6.82;;;5.70;99.90;;;;;;5060404;28;20209;-80
2020/12/12 00:25:47;;;;;;;10.38;7.25;;;5.70;99.90;;;;;;5060383;28;20223;-80
2020/12/12 00:28:13;;;;;;;8.32;7.00;;;5.70;99.90;;;;;;5060076;28;20195;-79
2020/12/12 00:30:40;;;;;;;7.55;6.72;;;5.80;99.90;;;;;;5040336;28;20685;-79
2020/12/12 00:33:07;;;;;;;8.15;6.90;;;5.80;99.90;;;;;;5057343;28;20211;-79
2020/12/12 00:35:33;;;;;;;8.23;7.22;;;5.80;99.90;;;;;;5060691;28;20191;-79
2020/12/12 00:37:59;;;;;;;9.10;6.93;;;5.80;99.90;;;;;;5059552;28;20183;-79
2020/12/12 00:40:26;;;;;;;11.88;8.40;;;5.80;99.90;;;;;;5060621;28;20221;-79
2020/12/12 00:42:52;;;;;;;7.63;6.85;;;5.80;99.90;;;;;;5060041;28;20734;-79
2020/12/12 00:45:18;;;;;;;9.98;7.68;;;5.90;99.90;;;;;;5059004;28;20202;-80
2020/12/12 00:47:45;;;;;;;9.57;7.70;;;5.90;99.90;;;;;;5062853;28;20198;-79
2020/12/12 00:50:11;;;;;;;8.68;7.03;;;5.90;99.90;;;;;;5057337;28;20205;-80
2020/12/12 00:52:37;;;;;;;9.57;7.20;;;5.90;99.90;;;;;;5055696;28;20214;-79
2020/12/12 00:55:04;;;;;;;10.30;6.88;;;5.90;99.90;;;;;;5063670;28;20195;-80
2020/12/12 00:57:30;;;;;;;8.45;7.20;;;6.00;99.90;;;;;;5064198;28;20217;-79
2020/12/12 00:59:56;;;;;;;11.02;7.13;;;6.00;99.90;;;;;;5064201;28;20683;-77
2020/12/12 01:02:23;;;;;;;8.40;6.28;;;6.00;99.90;;;;;;5057169;28;20230;-79
2020/12/12 01:04:50;;;;;;;8.57;6.90;;;6.00;99.90;;;;;;5064051;28;20680;-77
2020/12/12 01:07:16;;;;;;;7.43;5.80;;;6.10;99.90;;;;;;5064710;28;20211;-79
2020/12/12 01:09:42;;;;;;;7.97;6.45;;;6.10;99.90;;;;;;5065052;28;20201;-79
2020/12/12 01:12:08;;;;;;;9.55;6.70;;;6.10;99.90;;;;;;5059550;28;20226;-78
2020/12/12 01:14:35;;;;;;;7.32;6.43;;;6.10;99.90;;;;;;5062319;28;20202;-78
2020/12/12 01:17:01;;;;;;;7.22;6.35;;;6.10;99.90;;;;;;5064382;28;20201;-80
2020/12/12 01:19:30;;;;;;;10.25;6.95;;;6.20;99.90;;;;;;5064080;28;20199;-80
2020/12/12 01:21:57;;;;;;;9.57;7.20;;;6.10;99.90;;;;;;5064593;28;20308;-79
2020/12/12 01:24:23;;;;;;;9.95;7.95;;;6.10;99.90;;;;;;5064796;28;20197;-79
2020/12/12 01:26:49;;;;;;;10.88;7.70;;;6.10;99.90;;;;;;5063505;28;20221;-79
2020/12/12 01:29:16;;;;;;;9.07;7.53;;;6.10;99.90;;;;;;5064650;28;20198;-79
2020/12/12 01:31:42;;;;;;;11.55;7.35;;;6.00;99.90;;;;;;5063094;28;20218;-79
2020/12/12 01:34:08;;;;;;;10.38;7.13;;;5.90;99.90;;;;;;5063588;28;20586;-79
2020/12/12 01:36:34;;;;;;;11.50;8.50;;;5.90;99.90;;;;;;5063615;28;20302;-79
2020/12/12 01:39:01;;;;;;;12.13;7.85;;;5.90;99.90;;;;;;5063972;28;20194;-80
2020/12/12 01:41:27;;;;;;;10.75;8.48;;;5.80;99.90;;;;;;5066191;28;20219;-79
2020/12/12 01:43:54;;;;;;;12.10;7.95;;;5.70;99.90;;;;;;5064901;28;20202;-80
2020/12/12 01:46:23;;;;;;;13.07;9.45;;;5.60;99.90;;;;;;5064817;28;20221;-79
2020/12/12 01:48:52;;;;;;;12.23;8.68;;;5.70;99.90;;;;;;5063974;28;20747;-78
2020/12/12 01:51:20;;;;;;;10.75;8.98;;;5.60;99.90;;;;;;5064830;28;20233;-79
2020/12/12 01:53:48;;;;;;;11.30;9.43;;;5.60;99.90;;;;;;5063834;28;20262;-79
2020/12/12 01:56:16;;;;;;;12.98;9.60;;;5.70;99.90;;;;;;5063476;28;20195;-80
2020/12/12 01:58:44;;;;;;;12.70;9.38;;;5.70;99.90;;;;;;5063583;28;20205;-79
2020/12/12 02:01:12;;;;;;;12.30;9.45;;;5.70;99.90;;;;;;5063245;28;20218;-80
2020/12/12 02:03:41;;;;;;;15.32;10.60;;;5.60;99.90;;;;;;5064029;28;20204;-80
2020/12/12 02:06:11;;;;;;;12.88;9.55;;;5.60;99.90;;;;;;5063206;28;20206;-80
2020/12/12 02:08:37;;;;;;;9.60;8.63;;;5.60;99.90;;;;;;5064647;28;20195;-79
2020/12/12 02:11:03;;;;;;;14.18;11.00;;;5.60;99.90;;;;;;5064544;28;20596;-79
2020/12/12 02:13:31;;;;;;;12.90;9.13;;;5.70;99.90;;;;;;5064081;28;20202;-80
2020/12/12 02:15:58;;;;;;;15.25;10.70;;;5.70;99.90;;;;;;5064424;28;20201;-80
2020/12/12 02:18:25;;;;;;;12.77;9.60;;;5.70;99.90;;;;;;5064663;28;20191;-80
2020/12/12 02:20:52;;;;;;;14.20;9.75;;;5.70;99.90;;;;;;5064078;28;20274;-80
2020/12/12 02:23:20;;;;;;;11.73;9.40;;;5.80;99.90;;;;;;5064619;28;20201;-80
2020/12/12 02:25:47;;;;;;;13.02;9.98;;;5.70;99.90;;;;;;5064442;28;20214;-78
2020/12/12 02:28:16;;;;;;;11.30;8.65;;;5.80;99.90;;;;;;5063929;28;20199;-80
2020/12/12 02:30:42;;;;;;;11.13;9.90;;;5.80;99.90;;;;;;5064834;28;20277;-79
2020/12/12 02:33:09;;;;;;;12.98;8.70;;;5.80;99.90;;;;;;5063735;28;20195;-79
2020/12/12 02:35:35;;;;;;;10.18;9.10;;;5.80;99.90;;;;;;5064108;28;20194;-80
2020/12/12 02:38:01;;;;;;;13.50;8.75;;;5.80;99.90;;;;;;5063506;28;20580;-79
2020/12/12 02:40:29;;;;;;;10.35;8.50;;;5.90;99.90;;;;;;5064024;28;20533;-79
2020/12/12 02:42:55;;;;;;;11.65;8.40;;;5.90;99.90;;;;;;5063648;28;20219;-80
2020/12/12 02:45:21;;;;;;;11.95;8.48;;;5.90;99.90;;;;;;5064671;28;20403;-80
2020/12/12 02:47:48;;;;;;;11.48;8.32;;;5.90;99.90;;;;;;5062783;28;20229;-79
2020/12/12 02:50:15;;;;;;;9.70;8.70;;;5.90;99.90;;;;;;5064278;28;20195;-80
2020/12/12 02:52:44;;;;;;;9.82;8.75;;;5.90;99.90;;;;;;5064097;28;20226;-80
2020/12/12 02:55:11;;;;;;;12.38;9.65;;;6.00;99.90;;;;;;5064489;28;20195;-79
2020/12/12 02:57:38;;;;;;;10.65;7.95;;;6.00;99.90;;;;;;5064304;28;20186;-80
2020/12/12 03:00:08;;;;;;;8.45;6.90;;;6.00;99.90;;;;;;5063196;28;20198;-79
2020/12/12 03:02:35;;;;;;;12.02;8.35;;;6.10;99.90;;;;;;5072865;22;20238;-81
2020/12/12 03:05:01;;;;;;;10.05;7.95;;;6.00;99.90;;;;;;5039888;28;20198;-81
2020/12/12 03:07:28;;;;;;;10.60;7.70;;;6.00;99.90;;;;;;5045802;28;20215;-81
2020/12/12 03:09:54;;;;;;;16.90;9.70;;;6.10;99.90;;;;;;5044880;28;20200;-82
2020/12/12 03:12:20;;;;;;;10.18;8.23;;;6.10;99.90;;;;;;5045733;28;20214;-82
2020/12/12 03:14:47;;;;;;;9.82;8.20;;;6.10;99.90;;;;;;5045534;28;20200;-83
2020/12/12 03:17:13;;;;;;;11.45;8.55;;;6.10;99.90;;;;;;5045437;28;20191;-81
2020/12/12 03:19:40;;;;;;;13.45;9.18;;;6.20;99.90;;;;;;5044450;28;20203;-83
2020/12/12 03:22:06;;;;;;;10.55;8.13;;;6.20;99.90;;;;;;5045303;28;20198;-82
2020/12/12 03:24:33;;;;;;;10.23;8.23;;;6.20;99.90;;;;;;5045548;28;20199;-82
2020/12/12 03:26:59;;;;;;;9.93;7.90;;;6.20;99.90;;;;;;5045605;28;20216;-82
2020/12/12 03:29:25;;;;;;;10.25;7.55;;;6.20;99.90;;;;;;5045231;28;20207;-81
2020/12/12 03:31:52;;;;;;;12.15;8.40;;;6.20;99.90;;;;;;5045790;28;20263;-83
2020/12/12 03:34:19;;;;;;;9.90;7.70;;;6.20;99.90;;;;;;5056575;28;20215;-81
2020/12/12 03:36:46;;;;;;;9.10;7.78;;;6.20;99.90;;;;;;5061006;28;20656;-82
2020/12/12 03:39:12;;;;;;;11.93;8.82;;;6.30;99.90;;;;;;5064890;28;20414;-80
2020/12/12 03:41:38;;;;;;;9.73;8.15;;;6.30;99.90;;;;;;5064912;28;20200;-84
2020/12/12 03:44:05;;;;;;;9.05;8.15;;;6.30;99.90;;;;;;5065075;28;20214;-82
2020/12/12 03:46:31;;;;;;;9.95;7.00;;;6.30;99.90;;;;;;5065077;28;20217;-82
2020/12/12 03:48:58;;;;;;;9.88;8.30;;;6.30;99.90;;;;;;5064726;28;20213;-83
2020/12/12 03:51:24;;;;;;;10.00;8.10;;;6.30;99.90;;;;;;5065327;28;20194;-83
2020/12/12 03:53:51;;;;;;;13.98;9.80;;;6.30;99.90;;;;;;5065335;28;20214;-81
2020/12/12 03:56:17;;;;;;;10.07;7.65;;;6.30;99.90;;;;;;5064525;28;20190;-81
2020/12/12 03:58:43;;;;;;;10.65;8.13;;;6.30;99.90;;;;;;5064662;28;20198;-81
2020/12/12 04:01:09;;;;;;;11.10;7.90;;;6.40;99.90;;;;;;5064777;28;20199;-82
2020/12/12 04:03:35;;;;;;;8.30;7.40;;;6.40;99.90;;;;;;5063942;28;20724;-80
2020/12/12 04:06:02;;;;;;;10.40;8.55;;;6.40;99.90;;;;;;5053482;28;20215;-82
2020/12/12 04:08:29;;;;;;;14.55;8.70;;;6.40;99.90;;;;;;5045065;28;20206;-81
2020/12/12 04:10:55;;;;;;;9.48;8.00;;;6.40;99.90;;;;;;5044866;28;20195;-82
2020/12/12 04:13:21;;;;;;;9.50;7.70;;;6.40;99.90;;;;;;5044461;28;20246;-82
2020/12/12 04:15:47;;;;;;;10.05;8.55;;;6.40;99.90;;;;;;5045048;28;20656;-81
2020/12/12 04:18:13;;;;;;;9.43;8.40;;;6.40;99.90;;;;;;5044363;28;20192;-83
2020/12/12 04:20:40;;;;;;;10.25;7.90;;;6.40;99.90;;;;;;5044015;28;20218;-81
2020/12/12 04:23:07;;;;;;;10.70;7.80;;;6.50;99.90;;;;;;5047895;28;20238;-81
2020/12/12 04:25:33;;;;;;;10.40;7.80;;;6.50;99.90;;;;;;5047231;28;20203;-82
2020/12/12 04:27:59;;;;;;;10.82;8.63;;;6.50;99.90;;;;;;5047293;28;20199;-82
2020/12/12 04:30:25;;;;;;;10.75;8.90;;;6.50;99.90;;;;;;5048328;28;20191;-82
2020/12/12 04:32:52;;;;;;;11.10;8.10;;;6.50;99.90;;;;;;5052074;28;20634;-82
2020/12/12 04:35:18;;;;;;;11.85;8.30;;;6.50;99.90;;;;;;5059140;28;20195;-83
2020/12/12 04:37:44;;;;;;;13.40;8.73;;;6.60;99.90;;;;;;5068004;28;20258;-82
2020/12/12 04:40:11;;;;;;;13.85;9.30;;;6.50;99.90;;;;;;5068359;28;20199;-82
2020/12/12 04:42:42;;;;;;;15.80;7.70;;;6.50;99.90;;;;;;5067519;28;20218;-83
2020/12/12 04:45:09;;;;;;;11.02;9.05;;;6.50;99.90;;;;;;5067675;28;20194;-79
2020/12/12 04:47:35;;;;;;;13.15;9.23;;;6.60;99.90;;;;;;5067189;28;20221;-83
2020/12/12 04:50:02;;;;;;;11.20;9.65;;;6.60;99.90;;;;;;5067205;28;20199;-82
2020/12/12 04:52:31;;;;;;;10.20;8.48;;;6.60;99.90;;;;;;5067710;28;20210;-82
2020/12/12 04:55:02;;;;;;;11.07;8.80;;;6.60;99.90;;;;;;5067404;28;20206;-80
2020/12/12 04:57:33;;;;;;;12.15;8.38;;;6.60;99.90;;;;;;5067019;28;20185;-82
2020/12/12 05:00:01;;;;;;;13.02;9.90;;;6.60;99.90;;;;;;5067393;28;20625;-82
2020/12/12 05:02:28;;;;;;;10.48;9.40;;;6.60;99.90;;;;;;5067666;28;20219;-81
2020/12/12 05:04:54;;;;;;;10.82;9.13;;;6.60;99.90;;;;;;5058577;28;20191;-83
2020/12/12 05:07:20;;;;;;;10.50;8.65;;;6.60;99.90;;;;;;5066242;28;20587;-83
2020/12/12 05:09:46;;;;;;;11.98;8.43;;;6.60;99.90;;;;;;5067244;28;20254;-81
2020/12/12 05:12:13;;;;;;;11.55;8.93;;;6.60;99.90;;;;;;5067207;28;20252;-82
2020/12/12 05:14:40;;;;;;;12.45;9.82;;;6.70;99.90;;;;;;5066522;28;20198;-83
2020/12/12 05:17:08;;;;;;;10.98;8.75;;;6.70;99.90;;;;;;5066361;28;20195;-82
2020/12/12 05:19:35;;;;;;;13.15;9.88;;;6.60;99.90;;;;;;5065136;28;20710;-81
2020/12/12 05:22:03;;;;;;;12.55;9.60;;;6.60;99.90;;;;;;5066571;28;20205;-81
2020/12/12 05:24:31;;;;;;;11.15;9.05;;;6.60;99.90;;;;;;5066471;28;20853;-82
2020/12/12 05:27:00;;;;;;;13.45;9.95;;;6.70;99.90;;;;;;5066601;28;20211;-80
2020/12/12 05:29:27;;;;;;;13.05;9.25;;;6.60;99.90;;;;;;5066047;28;20205;-80
2020/12/12 05:31:56;;;;;;;10.65;8.50;;;6.70;99.90;;;;;;5066817;28;20199;-81
2020/12/12 05:34:24;;;;;;;14.23;9.68;;;6.70;99.90;;;;;;5056937;28;20218;-83
2020/12/12 05:36:51;;;;;;;12.05;9.35;;;6.60;99.90;;;;;;5063032;28;20187;-82
2020/12/12 05:39:17;;;;;;;14.25;9.63;;;6.60;99.90;;;;;;5066144;28;20202;-82
2020/12/12 05:41:46;;;;;;;15.95;9.85;;;6.60;99.90;;;;;;5066987;28;20262;-83
2020/12/12 05:44:13;;;;;;;12.50;9.43;;;6.60;99.90;;;;;;5066449;28;20301;-82
2020/12/12 05:46:39;;;;;;;14.07;10.32;;;6.60;99.90;;;;;;5065512;28;20253;-82
2020/12/12 05:49:07;;;;;;;14.63;10.25;;;6.60;99.90;;;;;;5065476;28;20202;-80
2020/12/12 05:51:33;;;;;;;13.43;10.23;;;6.60;99.90;;;;;;5064922;28;20205;-83
2020/12/12 05:54:00;;;;;;;29.70;11.70;;;6.50;99.90;;;;;;5065998;28;20301;-81
2020/12/12 05:56:30;;;;;;;17.92;11.90;;;6.50;99.90;;;;;;5065678;28;20191;-80
2020/12/12 05:58:57;;;;;;;14.98;10.48;;;6.40;99.90;;;;;;5065657;28;20186;-80
2020/12/12 06:01:25;;;;;;;16.92;12.57;;;6.40;99.90;;;;;;5065682;28;20198;-80
2020/12/12 06:03:53;;;;;;;16.50;10.80;;;6.40;99.90;;;;;;5064485;28;20227;-82
2020/12/12 06:06:25;;;;;;;16.23;11.10;;;6.30;99.90;;;;;;5057098;28;20210;-82
2020/12/12 06:09:01;;;;;;;18.60;11.82;;;6.30;99.90;;;;;;5064695;28;20706;-79
2020/12/12 06:11:29;;;;;;;15.82;11.15;;;6.30;99.90;;;;;;5064202;28;20198;-81
2020/12/12 06:13:58;;;;;;;16.08;11.98;;;6.30;99.90;;;;;;5064792;28;20704;-81
2020/12/12 06:16:26;;;;;;;16.77;12.10;;;6.30;99.90;;;;;;5064434;28;20198;-81
2020/12/12 06:19:15;;;;;;;17.27;12.07;;;6.30;99.90;;;;;;5064097;28;20200;-82
2020/12/12 06:21:44;;;;;;;18.20;12.75;;;6.30;99.90;;;;;;5040875;28;20199;-80
2020/12/12 06:24:11;;;;;;;16.50;10.88;;;6.20;99.90;;;;;;5038113;28;20235;-82
2020/12/12 06:26:55;;;;;;;16.58;12.43;;;6.30;99.90;;;;;;5043286;28;20208;-82
2020/12/12 06:29:25;;;;;;;17.17;12.73;;;6.20;99.90;;;;;;5044466;28;20720;-83
2020/12/12 06:31:52;;;;;;;19.52;12.05;;;6.20;99.90;;;;;;5044783;28;20191;-78
2020/12/12 06:34:40;;;;;;;20.40;11.82;;;6.20;99.90;;;;;;5057022;28;20216;-81
2020/12/12 06:37:07;;;;;;;21.42;13.90;;;6.20;99.90;;;;;;5062737;28;20273;-81
2020/12/12 06:39:44;;;;;;;17.45;12.50;;;6.20;99.90;;;;;;5064344;28;20209;-79
2020/12/12 06:42:29;;;;;;;19.27;13.05;;;6.20;99.90;;;;;;5063609;28;20205;-83
2020/12/12 06:44:55;;;;;;;21.42;12.65;;;6.20;99.90;;;;;;5063480;28;20185;-83
2020/12/12 06:47:37;;;;;;;21.38;13.88;;;6.20;99.90;;;;;;5062704;28;20222;-80
2020/12/12 06:50:08;;;;;;;20.67;12.55;;;6.20;99.90;;;;;;5063128;28;20689;-82
2020/12/12 06:52:36;;;;;;;19.13;13.23;;;6.20;99.90;;;;;;5063476;28;20214;-82
2020/12/12 06:55:07;;;;;;;20.92;11.95;;;6.20;99.90;;;;;;5063754;28;20198;-81
2020/12/12 06:57:37;;;;;;;21.08;13.90;;;6.20;99.90;;;;;;5063764;28;20179;-81
2020/12/12 07:00:05;;;;;;;19.25;12.35;;;6.20;99.90;;;;;;5064186;28;20230;-79
2020/12/12 07:02:31;;;;;;;17.92;12.25;;;6.20;99.90;;;;;;5062440;28;20221;-80
2020/12/12 07:05:18;;;;;;;20.98;12.35;;;6.20;99.90;;;;;;5055120;28;20191;-80
2020/12/12 07:07:45;;;;;;;19.92;13.10;;;6.20;99.90;;;;;;5063808;28;20218;-81
2020/12/12 07:10:11;;;;;;;21.95;13.57;;;6.20;99.90;;;;;;5063789;28;20222;-79
2020/12/12 07:12:38;;;;;;;22.15;13.18;;;6.30;99.90;;;;;;5066391;28;20210;-81
2020/12/12 07:15:05;;;;;;;16.65;11.57;;;6.30;99.90;;;;;;5066208;28;20273;-78
2020/12/12 07:17:32;;;;;;;20.95;14.27;;;6.30;99.90;;;;;;5065100;28;20273;-81
2020/12/12 07:19:59;;;;;;;19.10;13.85;;;6.30;99.90;;;;;;5065619;28;20205;-79
2020/12/12 07:22:27;;;;;;;16.45;12.40;;;6.30;99.90;;;;;;5066217;28;20237;-82
2020/12/12 07:24:55;;;;;;;18.73;13.38;;;6.30;99.90;;;;;;5066314;28;20195;-83
2020/12/12 07:27:21;;;;;;;19.67;12.65;;;6.30;99.90;;;;;;5064932;28;20222;-80
2020/12/12 07:29:47;;;;;;;22.95;13.13;;;6.40;99.90;;;;;;5066266;28;20190;-80
2020/12/12 07:32:14;;;;;;;20.33;13.25;;;6.40;99.90;;;;;;5065269;28;20199;-82
2020/12/12 07:34:40;;;;;;;20.88;12.55;;;6.40;99.90;;;;;;5058214;28;20210;-83
2020/12/12 07:37:08;;;;;;;18.83;12.13;;;6.40;99.90;;;;;;5065270;28;20186;-80
2020/12/12 07:39:36;;;;;;;15.77;12.35;;;6.40;99.90;;;;;;5065710;28;20198;-83
2020/12/12 07:42:05;;;;;;;21.50;12.85;;;6.30;99.90;;;;;;5065156;28;20212;-81
2020/12/12 07:44:35;;;;;;;18.90;12.52;;;6.40;99.90;;;;;;5066383;28;20198;-79
2020/12/12 07:47:03;;;;;;;15.32;11.18;;;6.40;99.90;;;;;;5065404;28;20217;-83
2020/12/12 07:49:30;;;;;;;20.10;12.48;;;6.40;99.90;;;;;;5065581;28;20262;-83
2020/12/12 07:52:05;;;;;;;18.35;13.10;;;6.40;99.90;;;;;;5065820;28;20248;-82
2020/12/12 07:54:38;;;;;;;18.50;11.25;;;6.40;99.90;;;;;;5065776;28;20202;-79
2020/12/12 07:57:07;;;;;;;17.05;12.43;;;6.40;99.90;;;;;;5069484;28;20257;-82
2020/12/12 07:59:34;;;;;;;21.55;13.20;;;6.40;99.90;;;;;;5070008;28;20284;-83
2020/12/12 08:02:01;;;;;;;14.98;11.43;;;6.40;99.90;;;;;;5070225;28;20591;-82
2020/12/12 08:04:28;;;;;;;17.75;11.80;;;6.40;99.90;;;;;;5063919;28;20286;-83
2020/12/12 08:06:54;;;;;;;15.52;11.23;;;6.50;99.90;;;;;;5066849;28;20210;-82
2020/12/12 08:09:22;;;;;;;18.23;12.95;;;6.50;99.90;;;;;;5069370;28;20721;-80
2020/12/12 08:11:56;;;;;;;17.92;11.38;;;6.50;99.90;;;;;;5069903;28;20258;-82
2020/12/12 08:14:23;;;;;;;16.33;11.23;;;6.50;99.90;;;;;;5069334;28;20232;-83
2020/12/12 08:16:54;;;;;;;15.45;11.90;;;6.40;99.90;;;;;;5069136;28;20190;-83
2020/12/12 08:19:21;;;;;;;19.52;12.75;;;6.40;99.90;;;;;;5063730;28;20228;-79
2020/12/12 08:21:50;;;;;;;15.80;11.98;;;6.50;99.90;;;;;;5059622;28;20199;-79
2020/12/12 08:24:17;;;;;;;20.50;12.23;;;6.50;99.90;;;;;;5061111;28;20218;-79
2020/12/12 08:26:43;;;;;;;17.73;12.60;;;6.60;99.90;;;;;;5060936;28;20230;-80
2020/12/12 08:29:09;;;;;;;20.77;11.18;;;6.50;99.90;;;;;;5061281;28;20210;-81
2020/12/12 08:31:38;;;;;;;15.95;11.98;;;6.60;99.90;;;;;;5061840;28;20712;-80
2020/12/12 08:34:04;;;;;;;18.50;12.05;;;6.60;99.90;;;;;;5060867;28;20215;-80
2020/12/12 08:36:31;;;;;;;18.27;13.10;;;6.60;99.90;;;;;;5057099;28;20259;-80
2020/12/12 08:38:59;;;;;;;23.30;12.88;;;6.60;99.90;;;;;;5063011;28;20311;-79
2020/12/12 08:41:30;;;;;;;19.10;12.70;;;6.60;99.90;;;;;;5063014;28;20204;-81
2020/12/12 08:43:56;;;;;;;19.33;12.75;;;6.60;99.90;;;;;;5063661;28;20292;-80
2020/12/12 08:46:22;;;;;;;16.63;12.82;;;6.60;99.90;;;;;;5064396;28;20207;-79
2020/12/12 08:48:50;;;;;;;19.45;12.15;;;6.60;99.90;;;;;;5066079;28;20206;-82
2020/12/12 08:51:23;;;;;;;18.27;12.55;;;6.70;99.90;;;;;;5066010;28;20194;-80
2020/12/12 08:53:50;;;;;;;18.20;11.90;;;6.60;99.90;;;;;;5065591;28;20215;-79
2020/12/12 08:56:25;;;;;;;16.92;11.88;;;6.60;99.90;;;;;;5065456;28;20205;-81
2020/12/12 08:58:54;;;;;;;17.10;11.38;;;6.60;99.90;;;;;;5065120;28;20660;-81
2020/12/12 09:01:23;;;;;;;15.20;11.93;;;6.60;99.90;;;;;;5066576;28;20262;-81
2020/12/12 09:03:54;;;;;;;16.05;11.50;;;6.60;99.90;;;;;;5077011;22;20222;-77
2020/12/12 09:06:21;;;;;;;15.45;10.85;;;6.60;99.90;;;;;;5050297;28;20195;-78
2020/12/12 09:08:47;;;;;;;18.10;12.65;;;6.60;99.90;;;;;;5044847;28;20748;-79
2020/12/12 09:11:15;;;;;;;16.75;12.43;;;6.70;99.90;;;;;;5057076;28;20214;-78
2020/12/12 09:13:41;;;;;;;16.77;11.95;;;6.70;99.90;;;;;;5056207;28;20309;-78
2020/12/12 09:16:08;;;;;;;20.55;12.35;;;6.80;99.90;;;;;;5056022;28;20715;-77
2020/12/12 09:18:43;;;;;;;17.90;13.18;;;6.80;99.90;;;;;;5055176;28;20245;-77
2020/12/12 09:21:12;;;;;;;15.55;12.35;;;6.80;99.90;;;;;;5056762;28;20583;-79
2020/12/12 09:23:39;;;;;;;17.10;11.52;;;6.80;99.90;;;;;;5057474;28;20580;-78
2020/12/12 09:26:06;;;;;;;16.13;11.75;;;6.80;99.90;;;;;;5055889;28;20198;-77
2020/12/12 09:28:33;;;;;;;15.73;11.07;;;6.80;99.90;;;;;;5057202;28;20229;-79
2020/12/12 09:30:59;;;;;;;16.67;11.15;;;6.80;99.90;;;;;;5057708;28;20195;-78
2020/12/12 09:33:26;;;;;;;20.42;13.00;;;6.80;99.90;;;;;;5057020;28;20565;-78
2020/12/12 09:35:53;;;;;;;18.48;12.30;;;6.80;99.90;;;;;;5057076;28;20203;-78
2020/12/12 09:38:20;;;;;;;20.25;12.90;;;6.80;99.90;;;;;;5056156;28;20226;-78
2020/12/12 09:40:49;;;;;;;17.38;12.43;;;6.80;99.90;;;;;;5056536;28;20206;-78
2020/12/12 09:43:16;;;;;;;16.77;11.80;;;6.70;99.90;;;;;;5057878;28;20569;-78
2020/12/12 09:45:42;;;;;;;17.10;11.68;;;6.70;99.90;;;;;;5062147;28;20194;-79
2020/12/12 09:48:09;;;;;;;20.13;12.77;;;6.70;99.90;;;;;;5056184;28;20210;-77
2020/12/12 09:50:35;;;;;;;19.55;13.18;;;6.70;99.90;;;;;;5056969;28;20197;-78
2020/12/12 09:53:03;;;;;;;17.80;12.18;;;6.70;99.90;;;;;;5056192;28;20206;-78
2020/12/12 09:55:30;;;;;;;17.73;12.50;;;6.80;99.90;;;;;;5055881;28;20195;-78
2020/12/12 09:57:57;;;;;;;17.00;12.68;;;6.80;99.90;;;;;;5055080;28;20198;-77
2020/12/12 10:00:23;;;;;;;15.52;12.07;;;6.80;99.90;;;;;;5054999;28;20228;-78
2020/12/12 10:02:50;;;;;;;16.92;10.52;;;6.90;99.90;;;;;;5056165;28;20191;-76
2020/12/12 10:05:16;;;;;;;16.30;11.73;;;6.90;99.90;;;;;;5055092;28;20625;-77
2020/12/12 10:07:42;;;;;;;15.65;11.65;;;6.90;99.90;;;;;;5055004;28;20201;-77
2020/12/12 10:10:09;;;;;;;15.73;12.70;;;7.00;99.90;;;;;;5055708;28;20210;-78
2020/12/12 10:12:36;;;;;;;16.70;12.57;;;7.00;99.90;;;;;;5055090;28;20673;-77
2020/12/12 10:15:04;;;;;;;18.10;12.25;;;7.00;99.90;;;;;;5055903;28;20229;-77
2020/12/12 10:17:30;;;;;;;19.25;12.70;;;7.00;99.90;;;;;;5055664;28;20236;-78
2020/12/12 10:19:56;;;;;;;17.77;12.38;;;7.10;99.90;;;;;;5058178;28;20187;-78
2020/12/12 10:22:22;;;;;;;16.23;11.55;;;7.10;99.90;;;;;;5058710;28;20202;-79
2020/12/12 10:24:49;;;;;;;17.45;11.75;;;7.10;99.90;;;;;;5058385;28;20215;-77
2020/12/12 10:27:15;;;;;;;14.90;10.05;;;7.20;99.90;;;;;;5056893;28;20202;-77
2020/12/12 10:29:42;;;;;;;13.68;10.63;;;7.20;99.90;;;;;;5057581;28;20195;-78
2020/12/12 10:32:08;;;;;;;16.35;11.10;;;7.20;99.90;;;;;;5056973;28;20297;-79
2020/12/12 10:34:34;;;;;;;13.43;8.75;;;7.20;99.90;;;;;;5057148;28;20230;-79
2020/12/12 10:37:01;;;;;;;11.10;8.90;;;7.10;99.90;;;;;;5056123;28;20225;-78
2020/12/12 10:39:29;;;;;;;14.18;10.63;;;7.20;99.90;;;;;;5057266;28;20194;-79
2020/12/12 10:41:58;;;;;;;12.88;10.73;;;7.20;99.90;;;;;;5056689;28;20664;-76
2020/12/12 10:44:24;;;;;;;11.18;8.48;;;7.20;99.90;;;;;;5054333;28;20730;-77
2020/12/12 10:46:52;;;;;;;12.23;8.77;;;7.10;99.90;;;;;;5054461;28;20198;-77
2020/12/12 10:49:18;;;;;;;11.68;9.05;;;7.10;99.90;;;;;;5054640;28;20187;-78
2020/12/12 10:51:48;;;;;;;12.10;9.40;;;7.00;99.90;;;;;;5055254;28;20198;-78
2020/12/12 10:54:16;;;;;;;12.80;9.40;;;7.00;99.90;;;;;;5055838;28;20245;-77
2020/12/12 10:56:43;;;;;;;15.13;10.07;;;7.10;99.90;;;;;;5056385;28;20268;-79
2020/12/12 10:59:10;;;;;;;12.15;9.68;;;7.10;99.90;;;;;;5055656;28;20675;-78
2020/12/12 11:01:36;;;;;;;11.57;8.77;;;7.10;99.90;;;;;;5055457;28;20191;-78
2020/12/12 11:04:03;;;;;;;12.02;9.18;;;7.20;99.90;;;;;;5053424;28;20222;-78
2020/12/12 11:06:30;;;;;;;11.15;9.18;;;7.20;99.90;;;;;;5058837;28;20743;-79
2020/12/12 11:08:56;;;;;;;13.13;9.18;;;7.30;99.90;;;;;;5054328;28;20195;-78
2020/12/12 11:11:22;;;;;;;12.50;9.45;;;7.40;99.90;;;;;;5054651;28;20218;-78
2020/12/12 11:13:48;;;;;;;9.98;8.68;;;7.40;99.90;;;;;;5055109;28;20237;-78
2020/12/12 11:16:18;;;;;;;10.50;8.60;;;7.50;99.90;;;;;;5054573;28;20710;-78
2020/12/12 11:18:47;;;;;;;10.65;9.00;;;7.50;99.90;;;;;;5054258;28;20253;-79
2020/12/12 11:21:18;;;;;;;9.48;8.00;;;7.50;99.90;;;;;;5034249;28;20699;-78
2020/12/12 11:23:44;;;;;;;8.55;7.05;;;7.60;99.90;;;;;;5032613;28;20211;-79
2020/12/12 11:26:11;;;;;;;10.60;8.50;;;7.60;99.90;;;;;;5035207;28;20215;-78
2020/12/12 11:28:37;;;;;;;10.02;8.93;;;7.60;99.90;;;;;;5035131;28;20795;-78
2020/12/12 11:31:04;;;;;;;11.23;8.95;;;7.70;99.90;;;;;;5033737;28;20568;-78
2020/12/12 11:33:30;;;;;;;11.25;8.00;;;7.70;99.90;;;;;;5033281;28;20216;-78
2020/12/12 11:36:07;;;;;;;10.70;8.35;;;7.80;99.90;;;;;;5033057;28;20217;-78
2020/12/12 11:38:40;;;;;;;10.93;8.18;;;7.80;99.90;;;;;;5034443;28;20561;-77
2020/12/12 11:41:19;;;;;;;11.55;8.05;;;7.90;99.90;;;;;;5034727;28;20191;-78
2020/12/12 11:44:15;;;;;;;10.80;8.18;;;7.90;99.90;;;;;;5035983;28;20568;-76
2020/12/12 11:46:46;;;;;;;11.07;8.43;;;8.00;99.90;;;;;;5034857;28;20200;-77
2020/12/12 11:49:12;;;;;;;11.98;8.63;;;8.00;99.90;;;;;;5053550;28;20183;-78
2020/12/12 11:51:39;;;;;;;12.75;8.30;;;8.10;99.90;;;;;;5055902;28;20202;-78
2020/12/12 11:54:06;;;;;;;11.23;7.82;;;8.10;99.90;;;;;;5054665;28;20234;-78
2020/12/12 11:56:33;;;;;;;13.57;9.85;;;8.00;99.90;;;;;;5054235;28;20536;-79
2020/12/12 11:58:59;;;;;;;15.32;10.15;;;8.00;99.90;;;;;;5053868;28;20200;-78
2020/12/12 12:01:27;;;;;;;13.20;8.80;;;8.00;99.90;;;;;;5053626;28;20187;-79
2020/12/12 12:03:54;;;;;;;13.07;9.05;;;8.00;99.90;;;;;;5054723;28;20220;-78
2020/12/12 12:06:22;;;;;;;10.80;8.43;;;8.00;99.90;;;;;;5054487;28;20199;-78
2020/12/12 12:09:02;;;;;;;16.50;9.57;;;8.10;99.90;;;;;;5055084;28;20288;-79
2020/12/12 12:11:30;;;;;;;9.70;8.02;;;8.10;99.90;;;;;;5054196;28;20190;-78
2020/12/12 12:13:57;;;;;;;11.98;8.80;;;8.20;99.90;;;;;;5054792;28;20584;-79
2020/12/12 12:16:23;;;;;;;12.60;8.60;;;8.20;99.90;;;;;;5054669;28;20199;-79
2020/12/12 12:18:50;;;;;;;13.23;9.63;;;8.20;99.90;;;;;;5054139;28;20218;-77
2020/12/12 12:21:16;;;;;;;10.52;8.90;;;8.10;99.90;;;;;;5058412;28;20364;-78
2020/12/12 12:23:42;;;;;;;12.00;8.43;;;8.10;99.90;;;;;;5054556;28;20211;-78
2020/12/12 12:26:09;;;;;;;17.25;9.70;;;8.10;99.90;;;;;;5056653;28;20198;-79
2020/12/12 12:28:36;;;;;;;12.48;9.40;;;8.10;99.90;;;;;;5056211;28;20211;-79
2020/12/12 12:31:03;;;;;;;11.45;8.48;;;8.10;99.90;;;;;;5053676;28;20734;-76
2020/12/12 12:33:29;;;;;;;11.13;8.68;;;8.10;99.90;;;;;;5052618;28;20222;-78
2020/12/12 12:35:55;;;;;;;15.00;8.40;;;8.00;99.90;;;;;;5052629;28;20192;-78
2020/12/12 12:38:22;;;;;;;11.57;8.50;;;8.00;99.90;;;;;;5052376;28;20386;-78
2020/12/12 12:40:49;;;;;;;16.98;9.88;;;8.00;99.90;;;;;;5053437;28;20204;-77
2020/12/12 12:43:15;;;;;;;17.45;9.60;;;8.00;99.90;;;;;;5054614;28;20215;-77
2020/12/12 12:45:42;;;;;;;18.50;11.38;;;8.00;99.90;;;;;;5056331;28;20195;-78